Contact Us:
Email: info@sawbill.com
Phone: (218)663-7150
Fax: (218)663-7980
Mail: 4620 Sawbill Trail
Box 2129
Tofte, MN 55615


Powered by
Movable Type 3.15
 
Sawbill Weather History Archives: October 2017
Current Sawbill Weather History | « September 2017 | November 2017 »


Date

High
Temperature

Low
Temperature

Barometric
Pressure

Relative
Humidity 7AM

9 AM
Temperature

Moisture

Snow

10/31/17 28 20 29.92 78% 24 0"
10/30/17 33 24 29.90 78% 24 0"
10/29/17 33 27 29.74 90% 32 Trace Trace
10/28/17 28 24 29.82 88% 27 0"
10/27/17 32 26 29.40 80% 26 Trace Trace
10/26/17 38 28 29.90 91% 28 .75" 6.75"
10/25/17 41 33 29.82 94% 36 0"
10/24/17 42 31 29.86 90% 32 0"
10/23/17 57 34 29.86 92% 34 .03"
10/22/17 54 39 29.86 68% 46 0"
10/21/17 59 48 29.88 75% 48 .02"
10/20/17 67 39 29.90 62% 54 0"
10/19/17 59 38 29.98 64% 38 0"
10/18/17 63 42 29.94 34% 42 0"
10/17/17 63 36 29.86 79% 44 0"
10/16/17 58 35 30.06 86% 38 0"
10/15/17 50 32 30.06 80% 35 0"
10/14/17 57 24 30.12 95% 30 .16"
10/13/17 51 32 30.12 68% 32 0"
10/12/17 52 46 30.06 33% 47 0"
10/11/17 52 30 30.10 93% 49 0"
10/10/17 49 30 30.18 71% 30 0"
10/9/17 46 31 30.18 72% 31 0"
10/8/17 56 42 30.02 39% 42 0"
10/7/17 58 42 29.74 69% 50 0"
10/6/17 54 34 29.76 83% 42 0"
10/5/17 54 34 30.06 77% 34 0"
10/4/17 51 41 30.08 86% 41 0"
10/3/17 62 43 30.10 88% 44 .08"
10/2/17 61 51 30.00 98% 60 1.44"
10/1/17 59 50 30.04 85% 51 .05"
 


Home I Trip Planning I Rentals and Outfitting I Reservations I Campgrounds I Sawbill Store I Sawbill News I Contact

© 1997 - 2017, Sawbill Canoe Outfitters, Inc. I Privacy Policy